createdAt,value
2022-12-23T00:00:30.919Z,32.17
2022-12-23T00:03:35.777Z,34.60
2022-12-23T00:06:38.771Z,32.60
2022-12-23T00:09:41.728Z,34.23
2022-12-23T00:13:02.147Z,31.30
2022-12-23T00:16:08.081Z,30.40
2022-12-23T00:19:12.544Z,31.83
2022-12-23T00:22:15.547Z,29.83
2022-12-23T00:25:19.130Z,30.40
2022-12-23T00:28:24.583Z,30.30
2022-12-23T00:31:27.739Z,28.70
2022-12-23T00:34:32.167Z,30.37
2022-12-23T00:37:35.175Z,29.40
2022-12-23T00:40:55.913Z,29.50
2022-12-23T00:43:58.990Z,30.97
2022-12-23T00:47:02.005Z,28.90
2022-12-23T00:50:06.415Z,30.47
2022-12-23T00:53:09.421Z,29.13
2022-12-23T00:56:12.370Z,29.93
2022-12-23T00:59:15.434Z,29.53
2022-12-23T01:02:35.930Z,28.23
2022-12-23T01:05:40.394Z,28.17
2022-12-23T01:08:43.388Z,27.20
2022-12-23T01:11:46.478Z,27.90
2022-12-23T01:14:49.853Z,28.20
2022-12-23T01:17:52.952Z,28.60
2022-12-23T01:20:57.397Z,27.87
2022-12-23T01:24:00.610Z,26.77
2022-12-23T01:27:03.647Z,26.60
2022-12-23T01:30:07.976Z,28.33
2022-12-23T01:33:10.973Z,26.90
2022-12-23T01:36:15.347Z,27.80
2022-12-23T01:39:18.640Z,26.30
2022-12-23T01:42:39.053Z,26.43
2022-12-23T01:45:42.228Z,24.47
2022-12-23T01:48:48.560Z,25.40
2022-12-23T01:51:53.486Z,25.97
2022-12-23T01:54:57.429Z,26.63
2022-12-23T01:58:09.875Z,24.67
2022-12-23T02:01:30.972Z,24.03
2022-12-23T02:04:34.063Z,23.10
2022-12-23T02:08:10.407Z,24.27
2022-12-23T02:11:32.938Z,23.90
2022-12-23T02:15:08.046Z,22.10
2022-12-23T02:18:27.605Z,22.77
2022-12-23T02:22:03.063Z,23.53
2022-12-23T02:25:30.329Z,22.80
2022-12-23T02:29:06.913Z,23.23
2022-12-23T02:32:18.820Z,22.30
2022-12-23T02:35:30.504Z,22.80
2022-12-23T02:38:40.320Z,23.50
2022-12-23T02:41:48.519Z,24.00
2022-12-23T02:45:00.216Z,22.10
2022-12-23T02:48:10.100Z,23.90
2022-12-23T02:51:15.855Z,24.33
2022-12-23T02:54:26.131Z,24.63
2022-12-23T02:57:35.423Z,24.77
2022-12-23T03:00:41.419Z,23.73
2022-12-23T03:03:48.863Z,23.37
2022-12-23T03:06:55.544Z,24.83
2022-12-23T03:09:59.898Z,24.50
2022-12-23T03:13:10.353Z,26.30
2022-12-23T03:16:21.901Z,24.73
2022-12-23T03:19:33.116Z,26.10
2022-12-23T03:22:40.246Z,24.93
2022-12-23T03:25:51.343Z,26.37
2022-12-23T03:28:59.897Z,25.20
2022-12-23T03:32:04.180Z,25.03
2022-12-23T03:35:13.589Z,24.10
2022-12-23T03:38:19.610Z,23.23
2022-12-23T03:41:28.991Z,25.87
2022-12-23T03:44:36.888Z,24.93
2022-12-23T03:47:45.711Z,24.47
2022-12-23T03:50:54.989Z,24.70
2022-12-23T03:54:02.665Z,24.97
2022-12-23T03:57:08.732Z,24.97
2022-12-23T04:00:14.020Z,25.33
2022-12-23T04:03:23.416Z,26.00
2022-12-23T04:06:31.627Z,24.50
2022-12-23T04:09:36.174Z,22.83
2022-12-23T04:12:40.440Z,23.30
2022-12-23T04:15:43.958Z,24.40
2022-12-23T04:18:46.999Z,22.40
2022-12-23T04:21:51.400Z,22.77
2022-12-23T04:24:54.446Z,22.40
2022-12-23T04:27:57.502Z,22.13
2022-12-23T04:31:00.553Z,21.60
2022-12-23T04:34:03.605Z,22.83
2022-12-23T04:37:08.137Z,23.30
2022-12-23T04:40:11.512Z,22.70
2022-12-23T04:43:14.717Z,22.87
2022-12-23T04:46:17.813Z,22.90
2022-12-23T04:49:20.908Z,25.87
2022-12-23T04:52:25.523Z,25.83
2022-12-23T04:55:28.537Z,28.00
2022-12-23T04:58:31.631Z,26.70
2022-12-23T05:01:34.659Z,24.60
2022-12-23T05:04:38.064Z,25.00
2022-12-23T05:07:42.445Z,26.40
2022-12-23T05:10:46.143Z,26.43
2022-12-23T05:13:49.197Z,27.53
2022-12-23T05:16:52.257Z,24.97
2022-12-23T05:19:56.603Z,26.43
2022-12-23T05:23:00.928Z,25.70
2022-12-23T05:26:03.951Z,25.23
2022-12-23T05:29:06.978Z,24.63
2022-12-23T05:32:10.108Z,24.97
2022-12-23T05:35:13.248Z,23.40
2022-12-23T05:38:17.686Z,24.67
2022-12-23T05:41:20.788Z,24.23
2022-12-23T05:44:23.822Z,23.70
2022-12-23T05:47:26.848Z,22.80
2022-12-23T05:50:29.999Z,23.00
2022-12-23T05:53:34.511Z,22.40
2022-12-23T05:56:37.443Z,22.10
2022-12-23T05:59:40.370Z,22.43
2022-12-23T06:02:46.123Z,22.57
2022-12-23T06:05:53.334Z,21.47
2022-12-23T06:09:00.060Z,22.97
2022-12-23T06:12:03.348Z,23.10
2022-12-23T06:15:07.364Z,20.50
2022-12-23T06:18:10.622Z,21.80
2022-12-23T06:21:13.663Z,21.87
2022-12-23T06:24:18.054Z,20.93
2022-12-23T06:27:21.150Z,21.77
2022-12-23T06:30:24.202Z,21.93
2022-12-23T06:33:27.256Z,21.23
2022-12-23T06:36:30.355Z,20.53
2022-12-23T06:39:35.057Z,20.10
2022-12-23T06:42:38.139Z,20.77
2022-12-23T06:45:41.676Z,20.50
2022-12-23T06:48:44.673Z,20.27
2022-12-23T06:51:47.735Z,20.90
2022-12-23T06:54:52.131Z,20.50
2022-12-23T06:57:55.178Z,20.67
2022-12-23T07:00:58.214Z,20.40
2022-12-23T07:04:01.996Z,20.43
2022-12-23T07:07:05.079Z,20.87
2022-12-23T07:10:10.935Z,22.07
2022-12-23T07:13:14.098Z,20.87
2022-12-23T07:16:17.477Z,19.97
2022-12-23T07:19:20.556Z,21.10
2022-12-23T07:22:23.537Z,19.27
2022-12-23T07:25:28.081Z,20.10
2022-12-23T07:28:31.136Z,21.73
2022-12-23T07:31:35.476Z,22.50
2022-12-23T07:34:41.099Z,21.30
2022-12-23T07:37:44.279Z,21.53
2022-12-23T07:40:51.325Z,21.10
2022-12-23T07:43:54.832Z,22.30
2022-12-23T07:46:57.839Z,21.57
2022-12-23T07:50:00.985Z,20.90
2022-12-23T07:53:04.016Z,19.60
2022-12-23T07:56:09.375Z,20.67
2022-12-23T07:59:12.396Z,21.20
2022-12-23T08:02:15.650Z,20.90
2022-12-23T08:05:18.990Z,20.43
2022-12-23T08:08:22.107Z,20.73
2022-12-23T08:11:26.517Z,19.97
2022-12-23T08:14:29.510Z,20.80
2022-12-23T08:17:33.047Z,19.67
2022-12-23T08:20:36.033Z,19.10
2022-12-23T08:23:39.563Z,20.17
2022-12-23T08:26:43.979Z,19.60
2022-12-23T08:29:47.607Z,19.20
2022-12-23T08:32:50.611Z,20.37
2022-12-23T08:35:55.780Z,19.63
2022-12-23T08:39:00.608Z,20.23
2022-12-23T08:42:05.216Z,19.90
2022-12-23T08:45:09.203Z,19.70
2022-12-23T08:48:12.232Z,20.73
2022-12-23T08:51:17.155Z,21.07
2022-12-23T08:54:20.594Z,19.13
2022-12-23T08:57:24.969Z,21.60
2022-12-23T09:00:28.053Z,20.43
2022-12-23T09:03:31.310Z,20.77
2022-12-23T09:06:37.278Z,21.07
2022-12-23T09:09:40.318Z,20.97
2022-12-23T09:12:44.692Z,20.80
2022-12-23T09:15:48.013Z,20.50
2022-12-23T09:18:51.076Z,21.20
2022-12-23T09:21:54.251Z,20.63
2022-12-23T09:25:03.144Z,20.70
2022-12-23T09:28:10.832Z,19.57
2022-12-23T09:31:14.387Z,19.43
2022-12-23T09:34:17.425Z,19.50
2022-12-23T09:37:20.403Z,20.67
2022-12-23T09:40:23.883Z,19.40
2022-12-23T09:43:40.133Z,18.47
2022-12-23T09:46:48.947Z,19.23
2022-12-23T09:49:54.777Z,18.47
2022-12-23T09:53:03.056Z,19.00
2022-12-23T09:56:15.954Z,18.70
2022-12-23T09:59:32.269Z,18.33
2022-12-23T10:02:48.028Z,17.67
2022-12-23T10:06:02.523Z,17.77
2022-12-23T10:09:08.615Z,18.07
2022-12-23T10:12:27.318Z,17.80
2022-12-23T10:15:38.354Z,17.83
2022-12-23T10:18:51.417Z,17.03
2022-12-23T10:22:01.318Z,17.50
2022-12-23T10:25:06.799Z,17.50
2022-12-23T10:28:11.119Z,16.70
2022-12-23T10:34:50.601Z,18.10
2022-12-23T10:37:59.077Z,16.50
2022-12-23T10:41:11.250Z,16.90
2022-12-23T10:44:37.714Z,16.67
2022-12-23T10:47:51.090Z,16.70
2022-12-23T10:51:00.526Z,17.10
2022-12-23T10:54:07.949Z,15.70
2022-12-23T10:57:11.673Z,16.23
2022-12-23T11:00:37.819Z,17.30
2022-12-23T11:03:47.657Z,16.30
2022-12-23T11:07:18.070Z,15.23
2022-12-23T11:10:20.484Z,16.70
2022-12-23T11:13:37.094Z,16.50
2022-12-23T11:16:47.175Z,16.20
2022-12-23T11:20:09.770Z,15.90
2022-12-23T11:23:26.880Z,16.07
2022-12-23T11:26:30.077Z,17.17
2022-12-23T11:29:36.604Z,15.87
2022-12-23T11:32:39.988Z,15.53
2022-12-23T11:35:45.620Z,15.00
2022-12-23T11:38:51.155Z,15.50
2022-12-23T11:42:02.842Z,16.43
2022-12-23T11:45:09.246Z,15.40
2022-12-23T11:48:29.929Z,14.67
2022-12-23T11:51:34.697Z,15.80
2022-12-23T11:54:38.984Z,15.23
2022-12-23T11:57:45.712Z,15.93
2022-12-23T12:00:56.038Z,15.00
2022-12-23T12:04:03.856Z,15.17
2022-12-23T12:07:13.326Z,14.93
2022-12-23T12:10:20.017Z,15.63
2022-12-23T12:13:27.672Z,14.70
2022-12-23T12:16:48.268Z,16.60
2022-12-23T12:20:04.938Z,15.43
2022-12-23T12:23:16.067Z,15.83
2022-12-23T12:26:26.724Z,14.70
2022-12-23T12:29:34.680Z,14.10
2022-12-23T12:32:48.095Z,15.23
2022-12-23T12:36:04.964Z,15.10
2022-12-23T12:39:19.344Z,14.40
2022-12-23T12:42:30.274Z,14.80
2022-12-23T12:45:40.120Z,15.60
2022-12-23T12:48:49.949Z,15.00
2022-12-23T12:51:59.542Z,15.60
2022-12-23T12:55:13.887Z,14.20
2022-12-23T12:58:21.624Z,14.50
2022-12-23T13:01:44.216Z,13.70
2022-12-23T13:05:06.595Z,13.50
2022-12-23T13:08:28.944Z,15.50
2022-12-23T13:11:45.277Z,14.60
2022-12-23T13:15:02.196Z,14.87
2022-12-23T13:18:26.668Z,14.43
2022-12-23T13:21:34.097Z,14.43
2022-12-23T13:24:47.451Z,14.83
2022-12-23T13:27:58.471Z,14.23
2022-12-23T13:31:08.169Z,14.00
2022-12-23T13:34:27.373Z,14.60
2022-12-23T13:37:37.678Z,14.80
2022-12-23T13:40:49.259Z,15.63
2022-12-23T13:43:57.629Z,14.13
2022-12-23T13:47:13.827Z,14.17
2022-12-23T13:50:24.659Z,15.40
2022-12-23T13:53:41.238Z,14.57
2022-12-23T13:56:50.432Z,14.60
2022-12-23T14:00:06.043Z,13.97
2022-12-23T14:03:34.192Z,13.50
2022-12-23T14:06:45.146Z,14.00
2022-12-23T14:09:53.273Z,14.07
2022-12-23T14:13:03.083Z,13.60
2022-12-23T14:16:36.330Z,15.00
2022-12-23T14:19:56.960Z,14.20
2022-12-23T14:23:10.979Z,13.07
2022-12-23T14:26:27.951Z,14.37
2022-12-23T14:29:43.164Z,14.23
2022-12-23T14:32:51.485Z,13.77
2022-12-23T14:35:58.233Z,14.37
2022-12-23T14:39:32.884Z,14.00
2022-12-23T14:42:37.861Z,14.37
2022-12-23T14:45:43.925Z,13.90
2022-12-23T14:49:38.893Z,14.50
2022-12-23T14:53:00.338Z,13.73
2022-12-23T14:56:21.780Z,14.43
2022-12-23T14:59:31.761Z,14.93
2022-12-23T15:02:38.332Z,14.73
2022-12-23T15:05:41.979Z,16.23
2022-12-23T15:08:48.845Z,15.53
2022-12-23T15:11:52.808Z,15.23
2022-12-23T15:14:59.199Z,15.63
2022-12-23T15:18:03.781Z,15.03
2022-12-23T15:21:13.391Z,14.90
2022-12-23T15:24:21.195Z,16.27
2022-12-23T15:27:27.953Z,14.60
2022-12-23T15:30:36.327Z,15.40
2022-12-23T15:37:03.240Z,14.80
2022-12-23T15:40:23.555Z,14.97
2022-12-23T15:43:26.652Z,14.90
2022-12-23T15:46:32.586Z,15.70
2022-12-23T15:49:35.761Z,16.17
2022-12-23T15:52:42.255Z,15.07
2022-12-23T15:55:48.425Z,15.03
2022-12-23T15:58:52.135Z,15.97
2022-12-23T16:01:55.546Z,14.97
2022-12-23T16:05:01.789Z,15.40
2022-12-23T16:08:12.840Z,15.60
2022-12-23T16:11:19.507Z,16.13
2022-12-23T16:14:34.300Z,16.23
2022-12-23T16:17:38.045Z,15.57
2022-12-23T16:20:43.265Z,16.67
2022-12-23T16:23:51.462Z,15.50
2022-12-23T16:26:56.973Z,16.70
2022-12-23T16:30:03.133Z,16.70
2022-12-23T16:33:08.620Z,16.07
2022-12-23T16:36:19.525Z,16.53
2022-12-23T16:39:23.990Z,17.07
2022-12-23T16:42:28.399Z,16.73
2022-12-23T16:45:33.963Z,17.37
2022-12-23T16:48:40.192Z,16.93
2022-12-23T16:51:43.867Z,16.63
2022-12-23T16:54:46.887Z,16.73
2022-12-23T16:57:51.579Z,17.37
2022-12-23T17:00:55.857Z,18.13
2022-12-23T17:03:59.082Z,16.67
2022-12-23T17:07:02.125Z,17.70
2022-12-23T17:10:05.758Z,17.40
2022-12-23T17:13:19.573Z,17.27
2022-12-23T17:16:24.522Z,17.97
2022-12-23T17:19:29.251Z,17.30
2022-12-23T17:22:35.443Z,16.27
2022-12-23T17:25:38.475Z,16.77
2022-12-23T17:28:42.946Z,17.40
2022-12-23T17:31:46.988Z,16.00
2022-12-23T17:34:50.041Z,16.43
2022-12-23T17:37:54.114Z,16.90
2022-12-23T17:40:59.185Z,16.40
2022-12-23T17:44:03.592Z,17.03
2022-12-23T17:47:11.759Z,16.67
2022-12-23T17:50:14.816Z,19.67
2022-12-23T17:53:19.086Z,19.33
2022-12-23T17:56:23.173Z,27.37
2022-12-23T17:59:27.514Z,29.93
2022-12-23T18:02:35.241Z,33.90
2022-12-23T18:05:38.366Z,39.33
2022-12-23T18:08:41.519Z,41.50
2022-12-23T18:11:47.248Z,42.27
2022-12-23T18:14:51.815Z,40.27
2022-12-23T18:17:54.849Z,40.57
2022-12-23T18:20:58.401Z,39.80
2022-12-23T18:24:01.542Z,38.87
2022-12-23T18:27:10.313Z,40.00
2022-12-23T18:30:15.250Z,39.27
2022-12-23T18:33:19.374Z,38.70
2022-12-23T18:36:24.585Z,36.30
2022-12-23T18:39:27.634Z,35.87
2022-12-23T18:42:30.664Z,36.50
2022-12-23T18:45:37.727Z,37.13
2022-12-23T18:48:40.837Z,34.67
2022-12-23T18:51:43.827Z,33.50
2022-12-23T18:54:46.881Z,31.67
2022-12-23T18:57:50.720Z,32.43
2022-12-23T19:00:55.128Z,31.20
2022-12-23T19:03:58.118Z,32.90
2022-12-23T19:07:01.126Z,32.80
2022-12-23T19:10:06.708Z,29.97
2022-12-23T19:13:10.383Z,29.83
2022-12-23T19:16:16.497Z,29.60
2022-12-23T19:19:19.539Z,27.63
2022-12-23T19:22:22.614Z,27.37
2022-12-23T19:25:25.659Z,27.23
2022-12-23T19:28:28.701Z,27.43
2022-12-23T19:31:34.161Z,25.80
2022-12-23T19:34:37.405Z,23.07
2022-12-23T19:37:40.534Z,25.57
2022-12-23T19:40:43.695Z,24.17
2022-12-23T19:43:47.540Z,23.47
2022-12-23T19:46:52.161Z,23.53
2022-12-23T19:49:55.229Z,26.40
2022-12-23T19:52:58.357Z,25.93
2022-12-23T19:56:03.831Z,27.47
2022-12-23T19:59:06.950Z,27.80
2022-12-23T20:02:15.110Z,27.90
2022-12-23T20:05:18.445Z,30.20
2022-12-23T20:08:21.490Z,30.57
2022-12-23T20:11:26.390Z,29.73
2022-12-23T20:14:33.832Z,31.30
2022-12-23T20:17:39.137Z,33.43
2022-12-23T20:20:45.091Z,32.83
2022-12-23T20:23:48.140Z,30.67
2022-12-23T20:26:51.203Z,33.47
2022-12-23T20:29:54.209Z,30.73
2022-12-23T20:32:58.804Z,34.73
2022-12-23T20:36:02.974Z,31.43
2022-12-23T20:39:06.441Z,31.93
2022-12-23T20:42:09.549Z,32.23
2022-12-23T20:45:13.540Z,31.43
2022-12-23T20:48:18.436Z,30.00
2022-12-23T20:51:24.167Z,29.60
2022-12-23T20:54:32.561Z,29.07
2022-12-23T20:57:36.783Z,27.90
2022-12-23T21:00:39.791Z,30.20
2022-12-23T21:03:44.241Z,30.37
2022-12-23T21:06:47.653Z,31.67
2022-12-23T21:09:50.647Z,35.03
2022-12-23T21:12:53.680Z,31.70
2022-12-23T21:16:01.843Z,31.53
2022-12-23T21:19:07.337Z,30.90
2022-12-23T21:22:10.382Z,31.30
2022-12-23T21:25:13.428Z,32.40
2022-12-23T21:28:16.562Z,29.63
2022-12-23T21:31:22.076Z,27.97
2022-12-23T21:34:26.596Z,30.07
2022-12-23T21:37:29.726Z,29.30
2022-12-23T21:40:32.823Z,29.63
2022-12-23T21:43:36.157Z,27.07
2022-12-23T21:46:39.139Z,27.27
2022-12-23T21:49:44.266Z,26.37
2022-12-23T21:52:47.192Z,28.60
2022-12-23T21:55:50.238Z,30.80
2022-12-23T21:58:56.450Z,28.17
2022-12-23T22:01:59.564Z,31.30
2022-12-23T22:05:04.028Z,29.03
2022-12-23T22:08:07.127Z,28.67
2022-12-23T22:11:11.341Z,27.30
2022-12-23T22:14:16.234Z,27.47
2022-12-23T22:17:19.252Z,29.17
2022-12-23T22:20:23.770Z,26.00
2022-12-23T22:23:26.722Z,30.67
2022-12-23T22:26:32.350Z,28.50
2022-12-23T22:29:35.314Z,27.20
2022-12-23T22:32:42.389Z,26.00
2022-12-23T22:35:55.821Z,26.87
2022-12-23T22:39:00.677Z,25.90
2022-12-23T22:42:03.684Z,24.30
2022-12-23T22:45:09.293Z,23.57
2022-12-23T22:48:12.432Z,24.47
2022-12-23T22:51:18.961Z,22.90
2022-12-23T22:54:21.996Z,23.43
2022-12-23T22:57:25.072Z,23.20
2022-12-23T23:00:28.071Z,23.57
2022-12-23T23:03:31.767Z,22.47
2022-12-23T23:06:38.692Z,21.93
2022-12-23T23:09:41.781Z,22.63
2022-12-23T23:12:44.870Z,21.00
2022-12-23T23:15:48.908Z,20.70
2022-12-23T23:18:52.441Z,20.90
2022-12-23T23:21:56.851Z,20.40
2022-12-23T23:24:59.894Z,20.00
2022-12-23T23:28:02.979Z,19.30
2022-12-23T23:31:39.696Z,18.57
2022-12-23T23:34:29.653Z,19.00
2022-12-23T23:37:33.986Z,18.20
2022-12-23T23:40:37.391Z,18.47
2022-12-23T23:43:40.448Z,18.40
2022-12-23T23:46:43.417Z,17.10
2022-12-23T23:49:46.477Z,16.83
2022-12-23T23:52:50.973Z,17.70
2022-12-23T23:55:53.964Z,16.93
2022-12-23T23:58:57.768Z,16.50
